createdAt,value
2018-09-22T00:01:09.103Z,1.23
2018-09-22T00:03:37.448Z,1.40
2018-09-22T00:06:05.856Z,1.67
2018-09-22T00:08:34.196Z,1.20
2018-09-22T00:11:02.543Z,1.07
2018-09-22T00:13:30.878Z,1.30
2018-09-22T00:15:59.200Z,1.10
2018-09-22T00:18:27.527Z,1.40
2018-09-22T00:20:55.852Z,1.53
2018-09-22T00:23:24.196Z,1.27
2018-09-22T00:25:52.523Z,1.40
2018-09-22T00:28:20.894Z,1.47
2018-09-22T00:30:49.342Z,2.23
2018-09-22T00:33:17.679Z,1.60
2018-09-22T00:35:46.009Z,1.40
2018-09-22T00:38:14.346Z,1.63
2018-09-22T00:40:42.659Z,1.63
2018-09-22T00:43:10.999Z,1.70
2018-09-22T00:45:39.315Z,1.40
2018-09-22T00:48:07.642Z,1.60
2018-09-22T00:50:35.953Z,1.90
2018-09-22T00:53:04.284Z,1.47
2018-09-22T00:55:32.598Z,2.00
2018-09-22T00:58:00.948Z,1.70
2018-09-22T01:00:29.289Z,1.60
2018-09-22T01:02:57.630Z,1.50
2018-09-22T01:05:25.943Z,1.40
2018-09-22T01:07:54.278Z,1.50
2018-09-22T01:10:22.586Z,1.40
2018-09-22T01:12:50.934Z,1.63
2018-09-22T01:15:19.254Z,1.77
2018-09-22T01:17:47.597Z,1.60
2018-09-22T01:20:15.924Z,1.73
2018-09-22T01:22:44.263Z,1.87
2018-09-22T01:25:12.582Z,1.60
2018-09-22T01:27:40.922Z,2.03
2018-09-22T01:30:09.255Z,1.77
2018-09-22T01:32:37.730Z,1.63
2018-09-22T01:35:06.092Z,1.53
2018-09-22T01:37:34.423Z,1.90
2018-09-22T01:40:02.744Z,1.70
2018-09-22T01:42:31.097Z,1.60
2018-09-22T01:44:59.415Z,1.50
2018-09-22T01:47:27.782Z,1.80
2018-09-22T01:49:56.126Z,1.67
2018-09-22T01:52:24.477Z,1.60
2018-09-22T01:54:52.808Z,1.50
2018-09-22T01:57:21.626Z,1.60
2018-09-22T01:59:49.974Z,1.90
2018-09-22T02:02:18.405Z,1.87
2018-09-22T02:04:46.733Z,1.70
2018-09-22T02:07:15.125Z,1.60
2018-09-22T02:09:43.493Z,1.90
2018-09-22T02:12:11.961Z,2.13
2018-09-22T02:14:40.342Z,1.90
2018-09-22T02:17:08.655Z,1.80
2018-09-22T02:19:36.979Z,1.80
2018-09-22T02:22:06.077Z,1.93
2018-09-22T02:24:34.507Z,1.73
2018-09-22T02:27:02.858Z,1.87
2018-09-22T02:29:31.191Z,1.40
2018-09-22T02:31:59.526Z,1.40
2018-09-22T02:34:28.119Z,1.90
2018-09-22T02:36:56.444Z,2.03
2018-09-22T02:39:24.787Z,1.97
2018-09-22T02:41:53.099Z,1.57
2018-09-22T02:44:21.485Z,1.70
2018-09-22T02:46:49.803Z,1.70
2018-09-22T02:49:18.134Z,1.73
2018-09-22T02:51:46.491Z,1.77
2018-09-22T02:54:14.845Z,1.60
2018-09-22T02:56:43.163Z,1.80
2018-09-22T02:59:11.841Z,1.80
2018-09-22T03:01:40.147Z,1.90
2018-09-22T03:04:08.474Z,1.80
2018-09-22T03:06:36.804Z,1.70
2018-09-22T03:09:07.199Z,1.60
2018-09-22T03:11:35.539Z,1.70
2018-09-22T03:14:03.895Z,2.23
2018-09-22T03:16:32.302Z,1.80
2018-09-22T03:19:00.789Z,1.83
2018-09-22T03:21:29.167Z,1.97
2018-09-22T03:23:57.552Z,2.00
2018-09-22T03:26:25.954Z,2.30
2018-09-22T03:28:54.371Z,1.80
2018-09-22T03:31:22.684Z,2.30
2018-09-22T03:33:51.043Z,1.47
2018-09-22T03:36:19.590Z,1.77
2018-09-22T03:38:47.936Z,1.97
2018-09-22T03:41:16.352Z,1.70
2018-09-22T03:43:44.770Z,1.77
2018-09-22T03:46:13.124Z,2.00
2018-09-22T03:48:41.463Z,1.90
2018-09-22T03:51:09.779Z,2.10
2018-09-22T03:53:38.338Z,1.83
2018-09-22T03:56:06.713Z,1.77
2018-09-22T03:58:35.064Z,2.10
2018-09-22T04:01:03.528Z,2.00
2018-09-22T04:03:31.938Z,1.93
2018-09-22T04:06:00.277Z,1.77
2018-09-22T04:08:28.626Z,1.70
2018-09-22T04:10:56.979Z,1.83
2018-09-22T04:13:25.299Z,1.80
2018-09-22T04:15:53.635Z,2.00
2018-09-22T04:18:21.967Z,1.90
2018-09-22T04:20:50.456Z,2.20
2018-09-22T04:23:18.794Z,2.37
2018-09-22T04:25:47.131Z,1.97
2018-09-22T04:28:15.443Z,2.00
2018-09-22T04:30:43.770Z,1.70
2018-09-22T04:33:12.139Z,1.70
2018-09-22T04:35:40.467Z,2.10
2018-09-22T04:38:09.039Z,1.93
2018-09-22T04:40:37.439Z,1.70
2018-09-22T04:43:05.779Z,2.17
2018-09-22T04:45:34.132Z,2.00
2018-09-22T04:48:02.449Z,2.00
2018-09-22T04:50:30.785Z,2.30
2018-09-22T04:52:59.103Z,2.10
2018-09-22T04:55:27.466Z,2.13
2018-09-22T04:57:55.787Z,2.03
2018-09-22T05:00:24.126Z,2.30
2018-09-22T05:02:52.455Z,2.00
2018-09-22T05:05:20.807Z,2.67
2018-09-22T05:07:49.126Z,2.50
2018-09-22T05:10:17.731Z,2.40
2018-09-22T05:12:46.066Z,2.30
2018-09-22T05:15:14.479Z,2.60
2018-09-22T05:17:42.838Z,2.43
2018-09-22T05:20:11.183Z,2.20
2018-09-22T05:22:39.504Z,2.20
2018-09-22T05:25:07.839Z,1.87
2018-09-22T05:27:36.160Z,1.90
2018-09-22T05:30:04.519Z,1.80
2018-09-22T05:32:32.866Z,2.10
2018-09-22T05:35:01.223Z,1.87
2018-09-22T05:37:29.559Z,2.03
2018-09-22T05:39:58.130Z,2.30
2018-09-22T05:42:26.443Z,2.00
2018-09-22T05:44:54.782Z,2.13
2018-09-22T05:47:23.207Z,1.80
2018-09-22T05:49:51.524Z,2.10
2018-09-22T05:52:19.887Z,2.53
2018-09-22T05:54:48.292Z,2.40
2018-09-22T05:57:16.655Z,2.50
2018-09-22T05:59:44.996Z,2.73
2018-09-22T06:02:13.323Z,3.10
2018-09-22T06:04:41.671Z,2.63
2018-09-22T06:07:10.022Z,3.00
2018-09-22T06:09:38.368Z,3.07
2018-09-22T06:12:07.517Z,3.57
2018-09-22T06:14:35.899Z,3.30
2018-09-22T06:17:04.239Z,3.17
2018-09-22T06:19:32.549Z,3.00
2018-09-22T06:22:00.883Z,3.00
2018-09-22T06:24:29.228Z,3.13
2018-09-22T06:26:57.583Z,3.03
2018-09-22T06:29:25.903Z,3.03
2018-09-22T06:31:54.244Z,3.10
2018-09-22T06:34:22.558Z,3.13
2018-09-22T06:36:50.902Z,3.23
2018-09-22T06:39:19.210Z,3.40
2018-09-22T06:41:47.695Z,3.50
2018-09-22T06:44:16.044Z,3.50
2018-09-22T06:46:44.428Z,3.23
2018-09-22T06:49:13.391Z,3.50
2018-09-22T06:51:42.253Z,3.13
2018-09-22T06:54:10.648Z,3.27
2018-09-22T06:56:39.030Z,3.50
2018-09-22T06:59:07.355Z,3.17
2018-09-22T07:01:35.849Z,3.07
2018-09-22T07:04:04.932Z,3.30
2018-09-22T07:06:33.500Z,3.47
2018-09-22T07:09:02.118Z,3.17
2018-09-22T07:11:30.718Z,3.00
2018-09-22T07:13:59.169Z,2.70
2018-09-22T07:16:27.524Z,3.07
2018-09-22T07:18:55.859Z,2.70
2018-09-22T07:21:29.570Z,2.70
2018-09-22T07:23:57.918Z,3.10
2018-09-22T07:26:26.314Z,3.20
2018-09-22T07:28:54.663Z,3.37
2018-09-22T07:31:23.029Z,2.80
2018-09-22T07:33:51.370Z,2.47
2018-09-22T07:36:19.725Z,2.90
2018-09-22T07:38:48.159Z,2.90
2018-09-22T07:41:16.787Z,2.67
2018-09-22T07:43:45.129Z,2.50
2018-09-22T07:46:13.473Z,2.13
2018-09-22T07:48:42.034Z,2.47
2018-09-22T07:51:10.367Z,2.43
2018-09-22T07:53:38.794Z,2.23
2018-09-22T07:56:07.149Z,2.40
2018-09-22T07:58:35.565Z,2.60
2018-09-22T08:01:03.912Z,2.50
2018-09-22T08:03:32.350Z,2.67
2018-09-22T08:06:00.692Z,2.67
2018-09-22T08:08:29.040Z,2.60
2018-09-22T08:10:57.375Z,2.10
2018-09-22T08:13:25.741Z,2.00
2018-09-22T08:15:54.283Z,2.00
2018-09-22T08:18:22.649Z,2.33
2018-09-22T08:20:51.029Z,2.17
2018-09-22T08:23:19.411Z,2.30
2018-09-22T08:25:47.739Z,2.20
2018-09-22T08:28:16.355Z,2.30
2018-09-22T08:30:44.692Z,2.20
2018-09-22T08:33:13.080Z,2.10
2018-09-22T08:35:41.428Z,2.00
2018-09-22T08:38:09.779Z,1.90
2018-09-22T08:40:38.107Z,2.37
2018-09-22T08:43:06.461Z,2.10
2018-09-22T08:45:34.783Z,2.30
2018-09-22T08:48:03.143Z,2.20
2018-09-22T08:50:31.614Z,2.00
2018-09-22T08:53:00.006Z,2.10
2018-09-22T08:55:30.024Z,2.10
2018-09-22T08:57:58.512Z,2.00
2018-09-22T09:00:26.848Z,2.27
2018-09-22T09:02:55.155Z,2.20
2018-09-22T09:05:23.478Z,2.27
2018-09-22T09:07:51.827Z,2.20
2018-09-22T09:10:20.164Z,2.00
2018-09-22T09:12:48.850Z,2.07
2018-09-22T09:15:17.191Z,2.43
2018-09-22T09:17:45.540Z,1.90
2018-09-22T09:20:13.916Z,2.20
2018-09-22T09:22:42.263Z,2.10
2018-09-22T09:25:10.758Z,2.40
2018-09-22T09:27:39.141Z,2.20
2018-09-22T09:30:07.480Z,2.10
2018-09-22T09:32:35.825Z,2.27
2018-09-22T09:35:04.172Z,1.97
2018-09-22T09:37:32.536Z,2.30
2018-09-22T09:40:00.870Z,2.10
2018-09-22T09:42:29.244Z,1.80
2018-09-22T09:44:57.558Z,1.87
2018-09-22T09:47:25.904Z,2.00
2018-09-22T09:49:54.248Z,2.13
2018-09-22T09:52:22.675Z,2.07
2018-09-22T09:54:51.065Z,2.00
2018-09-22T09:57:19.395Z,2.10
2018-09-22T09:59:47.753Z,2.10
2018-09-22T10:02:16.094Z,2.40
2018-09-22T10:04:44.455Z,2.03
2018-09-22T10:07:12.791Z,2.10
2018-09-22T10:09:41.226Z,2.50
2018-09-22T10:12:09.585Z,2.03
2018-09-22T10:14:37.943Z,2.00
2018-09-22T10:17:06.375Z,2.00
2018-09-22T10:19:34.737Z,2.00
2018-09-22T10:22:03.083Z,2.30
2018-09-22T10:24:31.427Z,2.30
2018-09-22T10:26:59.782Z,2.20
2018-09-22T10:29:28.131Z,2.50
2018-09-22T10:31:56.546Z,1.93
2018-09-22T10:34:24.897Z,1.90
2018-09-22T10:36:53.227Z,2.07
2018-09-22T10:39:21.579Z,2.10
2018-09-22T10:41:49.922Z,2.30
2018-09-22T10:44:18.270Z,2.20
2018-09-22T10:46:46.612Z,2.20
2018-09-22T10:49:14.960Z,2.20
2018-09-22T10:51:43.286Z,2.30
2018-09-22T10:54:11.758Z,2.33
2018-09-22T10:56:40.111Z,2.20
2018-09-22T10:59:08.462Z,2.43
2018-09-22T11:01:36.787Z,2.00
2018-09-22T11:04:05.153Z,1.90
2018-09-22T11:06:33.499Z,2.00
2018-09-22T11:09:01.915Z,2.37
2018-09-22T11:11:30.280Z,2.20
2018-09-22T11:13:58.619Z,2.27
2018-09-22T11:16:26.951Z,2.47
2018-09-22T11:18:55.296Z,2.20
2018-09-22T11:21:23.635Z,2.37
2018-09-22T11:23:51.975Z,2.53
2018-09-22T11:26:20.323Z,2.57
2018-09-22T11:28:48.678Z,2.57
2018-09-22T11:31:17.003Z,2.87
2018-09-22T11:33:45.498Z,2.60
2018-09-22T11:36:13.835Z,3.13
2018-09-22T11:38:42.210Z,3.30
2018-09-22T11:41:10.685Z,3.10
2018-09-22T11:43:39.035Z,3.27
2018-09-22T11:46:07.462Z,3.10
2018-09-22T11:48:35.862Z,3.07
2018-09-22T11:51:04.251Z,3.27
2018-09-22T11:53:32.623Z,3.27
2018-09-22T11:56:01.074Z,3.13
2018-09-22T11:58:29.460Z,2.83
2018-09-22T12:00:57.812Z,3.33
2018-09-22T12:03:26.163Z,2.50
2018-09-22T12:05:54.567Z,3.00
2018-09-22T12:08:22.976Z,2.70
2018-09-22T12:10:51.367Z,2.60
2018-09-22T12:13:19.688Z,2.63
2018-09-22T12:15:48.068Z,2.67
2018-09-22T12:18:16.406Z,2.70
2018-09-22T12:20:44.756Z,3.03
2018-09-22T12:23:13.085Z,2.60
2018-09-22T12:25:41.427Z,2.67
2018-09-22T12:28:09.760Z,2.33
2018-09-22T12:30:38.115Z,2.57
2018-09-22T12:33:06.591Z,2.57
2018-09-22T12:35:35.210Z,2.73
2018-09-22T12:38:03.528Z,3.13
2018-09-22T12:40:31.879Z,2.93
2018-09-22T12:43:00.207Z,3.13
2018-09-22T12:45:28.560Z,3.20
2018-09-22T12:47:56.908Z,3.00
2018-09-22T12:50:25.246Z,2.67
2018-09-22T12:52:53.584Z,3.37
2018-09-22T12:55:21.927Z,2.80
2018-09-22T12:57:50.258Z,2.73
2018-09-22T13:00:18.612Z,2.90
2018-09-22T13:02:46.943Z,2.83
2018-09-22T13:05:15.299Z,2.70
2018-09-22T13:07:43.629Z,2.63
2018-09-22T13:10:11.978Z,2.70
2018-09-22T13:12:40.333Z,2.70
2018-09-22T13:15:08.679Z,2.73
2018-09-22T13:17:37.016Z,2.73
2018-09-22T13:20:05.443Z,2.47
2018-09-22T13:22:33.757Z,2.30
2018-09-22T13:25:02.123Z,2.40
2018-09-22T13:27:30.451Z,2.60
2018-09-22T13:29:58.876Z,2.53
2018-09-22T13:32:27.211Z,2.43
2018-09-22T13:34:55.583Z,2.20
2018-09-22T13:37:24.017Z,2.43
2018-09-22T13:39:52.372Z,2.40
2018-09-22T13:42:20.726Z,2.77
2018-09-22T13:44:49.061Z,2.20
2018-09-22T13:47:17.417Z,2.10
2018-09-22T13:49:45.783Z,1.80
2018-09-22T13:52:14.147Z,1.93
2018-09-22T13:54:42.522Z,2.27
2018-09-22T13:57:10.883Z,1.93
2018-09-22T13:59:39.224Z,1.40
2018-09-22T14:02:07.580Z,1.20
2018-09-22T14:04:36.026Z,1.10
2018-09-22T14:07:04.479Z,1.30
2018-09-22T14:09:32.864Z,1.20
2018-09-22T14:12:01.243Z,1.40
2018-09-22T14:14:29.605Z,1.20
2018-09-22T14:16:58.108Z,1.30
2018-09-22T14:19:26.510Z,0.90
2018-09-22T14:21:54.903Z,1.03
2018-09-22T14:24:23.234Z,0.90
2018-09-22T14:26:51.580Z,0.63
2018-09-22T14:29:19.921Z,0.90
2018-09-22T14:31:48.263Z,1.00
2018-09-22T14:34:16.588Z,1.07
2018-09-22T14:36:44.927Z,0.93
2018-09-22T14:39:13.398Z,0.90
2018-09-22T14:41:41.823Z,1.00
2018-09-22T14:44:10.163Z,0.90
2018-09-22T14:46:38.582Z,1.27
2018-09-22T14:49:06.903Z,1.07
2018-09-22T14:51:35.250Z,1.00
2018-09-22T14:54:03.581Z,0.70
2018-09-22T14:56:31.946Z,1.00
2018-09-22T14:59:00.267Z,0.87
2018-09-22T15:01:28.632Z,0.97
2018-09-22T15:03:57.806Z,1.00
2018-09-22T15:06:26.148Z,0.90
2018-09-22T15:08:54.462Z,0.90
2018-09-22T15:11:22.815Z,1.00
2018-09-22T15:13:51.139Z,0.80
2018-09-22T15:16:19.483Z,0.90
2018-09-22T15:18:47.890Z,1.13
2018-09-22T15:21:16.744Z,0.90
2018-09-22T15:23:45.105Z,1.10
2018-09-22T15:26:13.447Z,0.80
2018-09-22T15:28:41.883Z,1.20
2018-09-22T15:31:10.227Z,1.00
2018-09-22T15:33:38.575Z,1.00
2018-09-22T15:36:06.917Z,1.10
2018-09-22T15:38:35.266Z,0.90
2018-09-22T15:41:03.639Z,1.07
2018-09-22T15:43:32.071Z,1.00
2018-09-22T15:46:00.395Z,1.30
2018-09-22T15:48:28.920Z,1.10
2018-09-22T15:50:57.133Z,1.50
2018-09-22T15:53:25.482Z,1.60
2018-09-22T15:55:53.820Z,1.57
2018-09-22T15:58:22.174Z,1.80
2018-09-22T16:00:50.523Z,1.60
2018-09-22T16:03:18.890Z,1.40
2018-09-22T16:05:47.218Z,1.57
2018-09-22T16:08:15.559Z,1.50
2018-09-22T16:10:43.913Z,1.50
2018-09-22T16:13:12.266Z,1.63
2018-09-22T16:15:40.588Z,1.63
2018-09-22T16:18:08.924Z,1.50
2018-09-22T16:20:37.416Z,1.70
2018-09-22T16:23:06.387Z,2.30
2018-09-22T16:25:34.711Z,2.30
2018-09-22T16:28:03.053Z,2.23
2018-09-22T16:30:31.380Z,2.10
2018-09-22T16:32:59.719Z,2.37
2018-09-22T16:35:28.047Z,2.20
2018-09-22T16:37:56.407Z,2.10
2018-09-22T16:40:24.750Z,2.33
2018-09-22T16:42:53.115Z,2.00
2018-09-22T16:45:21.439Z,2.03
2018-09-22T16:47:49.792Z,1.87
2018-09-22T16:50:18.123Z,1.63
2018-09-22T16:52:46.465Z,2.00
2018-09-22T16:55:14.831Z,1.80
2018-09-22T16:57:43.167Z,1.80
2018-09-22T17:00:11.508Z,2.07
2018-09-22T17:02:39.851Z,1.70
2018-09-22T17:05:08.187Z,2.00
2018-09-22T17:07:36.564Z,1.87
2018-09-22T17:10:04.910Z,1.70
2018-09-22T17:12:33.258Z,1.40
2018-09-22T17:15:01.581Z,2.10
2018-09-22T17:17:30.036Z,1.77
2018-09-22T17:19:58.392Z,2.13
2018-09-22T17:22:27.019Z,2.67
2018-09-22T17:24:55.347Z,2.23
2018-09-22T17:27:23.738Z,2.30
2018-09-22T17:29:52.055Z,2.30
2018-09-22T17:32:20.378Z,1.93
2018-09-22T17:34:48.819Z,2.10
2018-09-22T17:37:17.158Z,2.00
2018-09-22T17:39:45.507Z,2.23
2018-09-22T17:42:13.855Z,2.40
2018-09-22T17:44:42.211Z,2.30
2018-09-22T17:47:10.544Z,2.27
2018-09-22T17:49:38.904Z,2.47
2018-09-22T17:52:07.236Z,2.47
2018-09-22T17:54:35.585Z,2.77
2018-09-22T17:57:03.907Z,3.23
2018-09-22T17:59:32.331Z,2.57
2018-09-22T18:02:01.000Z,2.77
2018-09-22T18:04:29.494Z,2.43
2018-09-22T18:06:57.890Z,2.20
2018-09-22T18:09:26.224Z,2.20
2018-09-22T18:11:54.578Z,2.30
2018-09-22T18:14:22.909Z,2.30
2018-09-22T18:16:51.343Z,1.87
2018-09-22T18:19:19.640Z,1.90
2018-09-22T18:21:47.994Z,1.80
2018-09-22T18:24:16.460Z,1.60
2018-09-22T18:26:44.771Z,1.70
2018-09-22T18:29:13.103Z,1.50
2018-09-22T18:31:41.454Z,1.57
2018-09-22T18:34:09.830Z,1.80
2018-09-22T18:36:38.240Z,1.80
2018-09-22T18:39:08.912Z,2.00
2018-09-22T18:41:38.954Z,1.90
2018-09-22T18:44:08.596Z,1.70
2018-09-22T18:46:38.751Z,1.80
2018-09-22T18:49:09.684Z,1.67
2018-09-22T18:51:40.928Z,1.70
2018-09-22T18:54:11.441Z,1.53
2018-09-22T18:56:41.503Z,1.70
2018-09-22T18:59:11.152Z,1.40
2018-09-22T19:01:41.318Z,1.50
2018-09-22T19:04:10.854Z,1.50
2018-09-22T19:06:40.582Z,1.60
2018-09-22T19:09:11.892Z,1.53
2018-09-22T19:11:43.027Z,1.77
2018-09-22T19:14:19.124Z,2.20
2018-09-22T19:16:56.933Z,2.23
2018-09-22T19:19:32.909Z,2.50
2018-09-22T19:22:11.289Z,2.67
2018-09-22T19:24:45.678Z,2.83
2018-09-22T19:27:26.953Z,2.70
2018-09-22T19:30:03.066Z,2.60
2018-09-22T19:32:43.539Z,2.80
2018-09-22T19:35:14.966Z,2.70
2018-09-22T19:37:49.383Z,3.10
2018-09-22T19:40:25.677Z,2.73
2018-09-22T19:42:59.848Z,3.20
2018-09-22T19:45:33.565Z,2.90
2018-09-22T19:48:13.809Z,3.27
2018-09-22T19:50:46.454Z,2.87
2018-09-22T19:53:15.816Z,3.43
2018-09-22T19:55:44.163Z,3.30
2018-09-22T19:58:12.488Z,3.77
2018-09-22T20:00:40.884Z,3.47
2018-09-22T20:03:09.200Z,4.07
2018-09-22T20:05:37.575Z,3.87
2018-09-22T20:08:05.895Z,4.50
2018-09-22T20:10:34.243Z,3.77
2018-09-22T20:13:02.585Z,3.67
2018-09-22T20:15:30.964Z,3.60
2018-09-22T20:17:59.316Z,3.20
2018-09-22T20:20:27.666Z,3.57
2018-09-22T20:22:55.975Z,3.57
2018-09-22T20:25:24.324Z,3.17
2018-09-22T20:27:52.646Z,3.13
2018-09-22T20:30:21.026Z,3.27
2018-09-22T20:32:49.998Z,3.47
2018-09-22T20:35:18.350Z,3.40
2018-09-22T20:37:46.666Z,3.80
2018-09-22T20:40:14.986Z,4.00
2018-09-22T20:42:43.318Z,3.93
2018-09-22T20:45:11.865Z,4.37
2018-09-22T20:47:40.237Z,4.57
2018-09-22T20:50:08.579Z,4.33
2018-09-22T20:52:37.060Z,4.40
2018-09-22T20:55:05.667Z,4.80
2018-09-22T20:57:34.016Z,4.87
2018-09-22T21:00:02.347Z,4.50
2018-09-22T21:02:30.682Z,4.67
2018-09-22T21:04:59.003Z,4.27
2018-09-22T21:07:27.341Z,4.23
2018-09-22T21:09:55.737Z,4.30
2018-09-22T21:12:24.096Z,4.77
2018-09-22T21:14:52.410Z,4.27
2018-09-22T21:17:20.763Z,4.17
2018-09-22T21:19:49.070Z,4.57
2018-09-22T21:22:17.395Z,5.07
2018-09-22T21:24:45.720Z,5.10
2018-09-22T21:27:14.077Z,5.13
2018-09-22T21:29:42.443Z,4.70
2018-09-22T21:32:10.787Z,5.03
2018-09-22T21:34:39.153Z,5.10
2018-09-22T21:37:07.516Z,4.70
2018-09-22T21:39:35.859Z,5.10
2018-09-22T21:42:04.199Z,4.80
2018-09-22T21:44:32.513Z,4.70
2018-09-22T21:47:00.924Z,4.60
2018-09-22T21:49:29.243Z,4.67
2018-09-22T21:51:57.588Z,4.50
2018-09-22T21:54:25.923Z,4.93
2018-09-22T21:56:54.368Z,4.80
2018-09-22T21:59:22.703Z,5.27
2018-09-22T22:01:51.107Z,4.97
2018-09-22T22:04:19.431Z,5.00
2018-09-22T22:06:47.767Z,4.83
2018-09-22T22:09:16.104Z,5.23
2018-09-22T22:11:44.462Z,5.20
2018-09-22T22:14:12.785Z,5.00
2018-09-22T22:16:41.199Z,5.27
2018-09-22T22:19:09.804Z,5.37
2018-09-22T22:21:39.483Z,5.00
2018-09-22T22:24:09.131Z,5.50
2018-09-22T22:26:38.756Z,5.13
2018-09-22T22:29:07.138Z,5.10
2018-09-22T22:31:35.685Z,5.43
2018-09-22T22:34:04.746Z,5.67
2018-09-22T22:36:33.132Z,4.70
2018-09-22T22:39:02.571Z,5.70
2018-09-22T22:41:32.162Z,5.07
2018-09-22T22:44:01.782Z,5.60
2018-09-22T22:46:30.175Z,5.83
2018-09-22T22:48:58.525Z,5.40
2018-09-22T22:51:26.883Z,6.07
2018-09-22T22:53:55.486Z,5.87
2018-09-22T22:56:23.853Z,5.40
2018-09-22T22:58:52.189Z,5.73
2018-09-22T23:01:20.517Z,4.97
2018-09-22T23:03:48.863Z,5.30
2018-09-22T23:06:17.176Z,5.40
2018-09-22T23:08:45.561Z,5.57
2018-09-22T23:11:13.935Z,5.33
2018-09-22T23:13:42.824Z,5.30
2018-09-22T23:16:11.147Z,5.60
2018-09-22T23:18:39.479Z,4.80
2018-09-22T23:21:07.905Z,5.20
2018-09-22T23:23:36.163Z,5.30
2018-09-22T23:26:04.483Z,5.70
2018-09-22T23:28:32.821Z,5.13
2018-09-22T23:31:01.151Z,4.87
2018-09-22T23:33:29.490Z,5.53
2018-09-22T23:35:57.804Z,5.33
2018-09-22T23:38:26.142Z,5.50
2018-09-22T23:40:54.454Z,5.40
2018-09-22T23:43:22.786Z,5.70
2018-09-22T23:45:51.306Z,5.90
2018-09-22T23:48:19.640Z,5.43
2018-09-22T23:50:47.959Z,5.70
2018-09-22T23:53:16.298Z,5.80
2018-09-22T23:55:44.634Z,5.73
2018-09-22T23:58:13.150Z,5.97
